Time;durP1;ratioP1;P1;durP2;ratioP2;P2;SDS_P1;SDS_P2;PMS_P1;PMS_P2;Temp;Humidity;BMP_temperature;BMP_pressure;BME280_temperature;BME280_humidity;BME280_pressure;Samples;Min_cycle;Max_cycle;Signal;HPM_P1;HPM_P2
2023/04/25 00:02:25;;;;;;;4.83;3.63;;;8.10;99.90;;;;;;5055502;28;20250;-43
2023/04/25 00:04:51;;;;;;;3.67;2.97;;;8.10;42.00;;;;;;5054759;28;20184;-44
2023/04/25 00:07:17;;;;;;;3.70;3.40;;;8.10;99.90;;;;;;5055559;28;20260;-44
2023/04/25 00:09:43;;;;;;;3.70;3.37;;;8.10;62.60;;;;;;5056665;28;20467;-45
2023/04/25 00:12:08;;;;;;;6.63;3.97;;;8.10;99.90;;;;;;5056116;28;20193;-44
2023/04/25 00:14:35;;;;;;;3.67;3.00;;;8.10;82.00;;;;;;5053895;28;20205;-43
2023/04/25 00:17:01;;;;;;;3.43;3.13;;;8.10;99.90;;;;;;5054727;28;20205;-43
2023/04/25 00:19:28;;;;;;;3.80;3.40;;;8.10;99.90;;;;;;5054443;28;20427;-46
2023/04/25 00:21:57;;;;;;;3.87;3.57;;;8.10;99.90;;;;;;5056906;28;20208;-45
2023/04/25 00:24:22;;;;;;;4.70;2.90;;;8.00;99.90;;;;;;5056034;28;20539;-44
2023/04/25 00:26:48;;;;;;;3.40;3.10;;;8.00;99.90;;;;;;5055527;28;20698;-43
2023/04/25 00:29:14;;;;;;;3.57;3.27;;;8.00;99.90;;;;;;5055146;28;20233;-44
2023/04/25 00:31:39;;;;;;;4.10;3.73;;;8.00;99.90;;;;;;5055732;28;20212;-45
2023/04/25 00:34:07;;;;;;;3.57;3.27;;;7.90;99.90;;;;;;5055384;28;20563;-44
2023/04/25 00:36:32;;;;;;;5.83;3.70;;;7.90;99.90;;;;;;5052487;28;20262;-43
2023/04/25 00:38:58;;;;;;;4.57;3.67;;;7.90;99.90;;;;;;5055327;28;20439;-45
2023/04/25 00:41:25;;;;;;;4.10;3.00;;;7.90;99.90;;;;;;5054067;28;20170;-44
2023/04/25 00:43:52;;;;;;;5.00;2.97;;;7.90;99.90;;;;;;5058697;28;20205;-45
2023/04/25 00:46:17;;;;;;;4.00;3.57;;;7.90;50.80;;;;;;5059819;28;20478;-46
2023/04/25 00:48:43;;;;;;;3.83;2.87;;;7.90;70.00;;;;;;5060326;28;20852;-43
2023/04/25 00:51:10;;;;;;;3.20;2.90;;;7.80;99.90;;;;;;5060293;28;20264;-46
2023/04/25 00:53:36;;;;;;;3.93;3.53;;;7.80;99.90;;;;;;5040856;28;20182;-45
2023/04/25 00:56:01;;;;;;;3.87;3.00;;;7.90;99.90;;;;;;5059840;28;20927;-45
2023/04/25 00:58:27;;;;;;;3.50;3.20;;;7.90;99.90;;;;;;5059734;28;20267;-44
2023/04/25 01:00:53;;;;;;;6.63;3.10;;;7.80;99.90;;;;;;5058074;28;20453;-44
2023/04/25 01:03:21;;;;;;;5.33;3.30;;;7.80;99.90;;;;;;5060686;28;20475;-44
2023/04/25 01:05:47;;;;;;;4.60;3.57;;;7.80;1.00;;;;;;5042858;28;20260;-44
2023/04/25 01:08:14;;;;;;;3.70;3.30;;;7.80;1.00;;;;;;5059537;28;20838;-46
2023/04/25 01:10:40;;;;;;;3.87;3.17;;;7.80;1.00;;;;;;5060072;28;20771;-45
2023/04/25 01:13:06;;;;;;;3.67;3.33;;;7.80;1.00;;;;;;5059308;28;20530;-44
2023/04/25 01:15:31;;;;;;;4.57;4.00;;;7.80;1.00;;;;;;5059165;28;20510;-43
2023/04/25 01:17:58;;;;;;;4.00;3.30;;;7.80;1.00;;;;;;5059159;28;20701;-44
2023/04/25 01:20:24;;;;;;;5.30;4.07;;;7.90;1.00;;;;;;5059638;28;20178;-45
2023/04/25 01:23:24;;;;;;;4.33;3.77;;;7.80;99.90;;;;;;5059830;28;20459;-44
2023/04/25 01:25:50;;;;;;;4.57;3.23;;;7.70;99.90;;;;;;5060537;28;20428;-44
2023/04/25 01:28:16;;;;;;;3.80;3.40;;;7.50;99.90;;;;;;5058756;28;20575;-43
2023/04/25 01:30:42;;;;;;;4.37;3.63;;;7.50;99.90;;;;;;5058736;28;20431;-45
2023/04/25 01:33:09;;;;;;;3.57;3.27;;;7.30;1.00;;;;;;5059957;28;20183;-43
2023/04/25 01:35:34;;;;;;;3.53;3.23;;;7.20;1.00;;;;;;5058796;28;20487;-42
2023/04/25 01:38:00;;;;;;;3.97;3.00;;;7.10;1.00;;;;;;5059800;28;20790;-47
2023/04/25 01:40:27;;;;;;;3.30;3.00;;;7.10;1.00;;;;;;5058600;28;20177;-44
2023/04/25 01:42:53;;;;;;;4.17;3.03;;;7.00;1.00;;;;;;5059318;28;20444;-45
2023/04/25 01:45:19;;;;;;;4.80;3.37;;;7.00;1.00;;;;;;5059515;28;20810;-43
2023/04/25 01:47:48;;;;;;;6.00;3.20;;;7.00;99.90;;;;;;5058518;28;20427;-44
2023/04/25 01:50:15;;;;;;;3.93;2.50;;;6.90;99.90;;;;;;5058666;28;20618;-44
2023/04/25 01:52:41;;;;;;;3.90;3.57;;;6.90;99.90;;;;;;5057898;28;20838;-46
2023/04/25 01:55:07;;;;;;;4.60;3.03;;;7.00;99.90;;;;;;5056150;28;20435;-44
2023/04/25 01:57:32;;;;;;;7.50;5.40;;;6.90;99.90;;;;;;5059201;28;20315;-43
2023/04/25 02:00:00;;;;;;;4.20;3.90;;;7.00;99.90;;;;;;5059283;28;20424;-44
2023/04/25 02:02:26;;;;;;;4.00;3.63;;;7.00;99.90;;;;;;5059177;28;20526;-44
2023/04/25 02:04:52;;;;;;;4.57;3.10;;;7.00;99.90;;;;;;5059077;28;20416;-43
2023/04/25 02:07:17;;;;;;;3.60;3.30;;;7.00;99.90;;;;;;5059780;28;20174;-45
2023/04/25 02:09:43;;;;;;;3.80;3.30;;;7.10;1.00;;;;;;5057364;28;20192;-44
2023/04/25 02:12:10;;;;;;;4.13;3.80;;;7.10;1.00;;;;;;5058619;28;20261;-44
2023/04/25 02:14:35;;;;;;;7.33;4.23;;;7.10;1.00;;;;;;5059094;28;20200;-44
2023/04/25 02:17:01;;;;;;;4.90;4.40;;;7.10;1.00;;;;;;5059016;28;20479;-45
2023/04/25 02:19:26;;;;;;;6.63;4.90;;;7.10;1.00;;;;;;5058317;28;20253;-44
2023/04/25 02:21:52;;;;;;;5.80;5.30;;;7.10;1.00;;;;;;5058407;28;20255;-43
2023/04/25 02:24:18;;;;;;;4.20;3.80;;;7.10;1.00;;;;;;5056567;28;20421;-44
2023/04/25 02:26:44;;;;;;;3.93;3.53;;;7.00;1.00;;;;;;5057647;28;20256;-44
2023/04/25 02:29:10;;;;;;;3.97;3.67;;;7.00;1.00;;;;;;5057511;28;20222;-44
2023/04/25 02:31:35;;;;;;;4.00;3.10;;;6.90;1.00;;;;;;5057808;28;20497;-43
2023/04/25 02:34:01;;;;;;;5.20;3.63;;;6.90;1.00;;;;;;5058638;28;20428;-47
2023/04/25 02:36:27;;;;;;;3.20;2.90;;;7.00;1.00;;;;;;5057576;28;20236;-45
2023/04/25 02:38:53;;;;;;;3.93;3.20;;;6.90;1.00;;;;;;5056513;28;20225;-44
2023/04/25 02:41:18;;;;;;;3.73;3.43;;;6.90;1.00;;;;;;5056571;28;20415;-44
2023/04/25 02:43:44;;;;;;;3.17;2.87;;;6.90;1.00;;;;;;5056420;28;20173;-44
2023/04/25 02:46:09;;;;;;;3.53;3.17;;;6.90;1.00;;;;;;5056036;28;20429;-43
2023/04/25 02:48:35;;;;;;;6.47;4.23;;;6.90;1.00;;;;;;5055858;28;20189;-44
2023/04/25 02:51:00;;;;;;;5.10;3.63;;;6.90;1.00;;;;;;5056253;28;20696;-43
2023/04/25 02:53:26;;;;;;;3.23;2.93;;;6.90;1.00;;;;;;5057086;28;20185;-43
2023/04/25 02:55:52;;;;;;;3.43;3.13;;;6.90;1.00;;;;;;5058491;28;20263;-44
2023/04/25 02:58:18;;;;;;;3.37;2.93;;;6.90;1.00;;;;;;5057823;28;20261;-45
2023/04/25 03:00:44;;;;;;;3.90;3.50;;;6.90;1.00;;;;;;5057251;28;20523;-44
2023/04/25 03:03:09;;;;;;;4.00;3.17;;;7.00;1.00;;;;;;5056310;28;20575;-44
2023/04/25 03:05:35;;;;;;;5.20;3.23;;;7.00;1.00;;;;;;5054758;28;20238;-47
2023/04/25 03:08:00;;;;;;;4.17;3.17;;;7.00;1.00;;;;;;5056019;28;20259;-44
2023/04/25 03:10:26;;;;;;;5.60;3.80;;;7.00;1.00;;;;;;5055355;28;20224;-44
2023/04/25 03:12:52;;;;;;;6.50;4.00;;;7.10;1.00;;;;;;5055080;28;20178;-44
2023/04/25 03:15:18;;;;;;;4.23;3.80;;;7.10;1.00;;;;;;5055963;28;20595;-45
2023/04/25 03:17:44;;;;;;;5.80;3.80;;;7.10;1.00;;;;;;5057496;28;20181;-43
2023/04/25 03:20:10;;;;;;;4.83;4.17;;;7.10;1.00;;;;;;5056663;28;20430;-46
2023/04/25 03:22:36;;;;;;;3.73;3.43;;;7.00;1.00;;;;;;5057330;28;20181;-44
2023/04/25 03:25:02;;;;;;;4.87;4.23;;;7.00;1.00;;;;;;5057357;28;20762;-47
2023/04/25 03:27:27;;;;;;;4.67;3.87;;;7.00;1.00;;;;;;5057478;28;20461;-44
2023/04/25 03:29:53;;;;;;;5.80;4.63;;;7.00;1.00;;;;;;5057821;28;20586;-44
2023/04/25 03:32:18;;;;;;;4.50;4.10;;;7.00;99.90;;;;;;5055787;28;20178;-45
2023/04/25 03:34:44;;;;;;;5.20;3.90;;;7.10;99.90;;;;;;5055649;28;20279;-43
2023/04/25 03:37:09;;;;;;;4.60;3.80;;;7.10;99.90;;;;;;5056381;28;20232;-44
2023/04/25 03:39:35;;;;;;;3.87;3.50;;;7.20;99.90;;;;;;5057318;28;20169;-44
2023/04/25 03:42:02;;;;;;;5.40;4.03;;;7.10;99.90;;;;;;5057705;28;20186;-45
2023/04/25 03:44:28;;;;;;;4.47;4.07;;;7.10;99.90;;;;;;5056136;28;20166;-45
2023/04/25 03:46:53;;;;;;;6.30;3.77;;;7.20;99.90;;;;;;5056810;28;20485;-43
2023/04/25 03:49:19;;;;;;;6.10;5.13;;;7.10;99.90;;;;;;5055826;28;20185;-46
2023/04/25 03:51:45;;;;;;;4.07;3.67;;;7.10;1.00;;;;;;5054266;28;20276;-43
2023/04/25 03:54:10;;;;;;;4.90;3.83;;;7.00;99.90;;;;;;5055346;28;20426;-44
2023/04/25 03:56:36;;;;;;;4.17;3.53;;;7.00;99.90;;;;;;5054652;28;20213;-45
2023/04/25 03:59:02;;;;;;;4.30;3.83;;;7.00;99.90;;;;;;5054945;28;20272;-45
2023/04/25 04:01:27;;;;;;;3.97;3.57;;;7.00;1.00;;;;;;5054741;28;20174;-53
2023/04/25 04:03:53;;;;;;;5.00;4.50;;;6.90;1.00;;;;;;5055773;28;20482;-45
2023/04/25 04:06:20;;;;;;;5.97;4.53;;;6.90;1.00;;;;;;5055285;28;20177;-43
2023/04/25 04:08:46;;;;;;;5.40;3.83;;;6.90;1.00;;;;;;5056383;28;20184;-45
2023/04/25 04:11:12;;;;;;;4.70;4.20;;;6.80;1.00;;;;;;5055258;28;20424;-45
2023/04/25 04:13:37;;;;;;;6.20;4.83;;;6.90;1.00;;;;;;5055438;28;20507;-46
2023/04/25 04:16:04;;;;;;;5.20;4.70;;;6.90;1.00;;;;;;5054863;28;20213;-45
2023/04/25 04:18:29;;;;;;;6.33;4.60;;;7.00;1.00;;;;;;5058437;28;20240;-44
2023/04/25 04:20:57;;;;;;;5.33;3.93;;;7.00;1.00;;;;;;5059297;28;20424;-45
2023/04/25 04:23:23;;;;;;;5.53;4.23;;;7.00;1.00;;;;;;5059348;28;20515;-43
2023/04/25 04:25:49;;;;;;;3.90;3.50;;;7.00;1.00;;;;;;5056409;28;20519;-45
2023/04/25 04:28:15;;;;;;;5.50;4.20;;;7.00;1.00;;;;;;5056495;28;20225;-43
2023/04/25 04:30:42;;;;;;;5.23;4.30;;;6.90;1.00;;;;;;5057616;28;20264;-43
2023/04/25 04:33:08;;;;;;;6.57;4.80;;;6.90;1.00;;;;;;5056135;28;20466;-44
2023/04/25 04:35:33;;;;;;;6.03;5.43;;;6.90;1.00;;;;;;5056690;28;20468;-45
2023/04/25 04:37:59;;;;;;;6.50;5.80;;;6.90;1.00;;;;;;5057286;28;20726;-44
2023/04/25 04:40:25;;;;;;;5.40;4.90;;;7.00;1.00;;;;;;5056857;28;20182;-44
2023/04/25 04:42:53;;;;;;;5.57;4.97;;;7.00;1.00;;;;;;5057086;28;20185;-45
2023/04/25 04:45:18;;;;;;;5.60;4.40;;;7.00;1.00;;;;;;5056904;28;20450;-44
2023/04/25 04:47:44;;;;;;;5.43;4.60;;;7.00;1.00;;;;;;5058199;28;20514;-44
2023/04/25 04:50:10;;;;;;;4.40;4.00;;;7.00;1.00;;;;;;5057490;28;20276;-44
2023/04/25 04:52:37;;;;;;;5.47;4.97;;;7.10;1.00;;;;;;5056379;28;20293;-44
2023/04/25 04:55:03;;;;;;;5.27;4.77;;;7.10;1.00;;;;;;5056679;28;20485;-45
2023/04/25 04:57:29;;;;;;;5.50;4.60;;;7.20;1.00;;;;;;5058194;28;20434;-44
2023/04/25 04:59:54;;;;;;;4.73;4.20;;;7.20;1.00;;;;;;5055764;28;20526;-43
2023/04/25 05:02:20;;;;;;;5.70;5.10;;;7.30;1.00;;;;;;5054892;28;20181;-46
2023/04/25 05:04:46;;;;;;;5.63;4.20;;;7.30;1.00;;;;;;5056574;28;20216;-44
2023/04/25 05:07:12;;;;;;;5.30;4.20;;;7.40;1.00;;;;;;5055224;28;20178;-44
2023/04/25 05:09:38;;;;;;;7.17;4.80;;;7.40;1.00;;;;;;5052441;28;20415;-45
2023/04/25 05:12:04;;;;;;;6.30;4.00;;;7.50;1.00;;;;;;5053688;28;20435;-43
2023/04/25 05:14:30;;;;;;;8.13;4.80;;;7.60;1.00;;;;;;5053688;28;20476;-44
2023/04/25 05:16:55;;;;;;;5.77;4.50;;;7.60;1.00;;;;;;5052221;28;20217;-44
2023/04/25 05:19:21;;;;;;;4.80;4.30;;;7.50;99.90;;;;;;5052213;28;20236;-44
2023/04/25 05:21:47;;;;;;;5.80;5.20;;;7.40;99.90;;;;;;5048877;28;20650;-44
2023/04/25 05:24:12;;;;;;;4.90;4.20;;;7.40;99.90;;;;;;5049316;28;20448;-43
2023/04/25 05:26:38;;;;;;;4.83;4.40;;;7.40;1.00;;;;;;5053718;28;20487;-44
2023/04/25 05:29:05;;;;;;;5.63;5.03;;;7.40;1.00;;;;;;5054831;28;20296;-45
2023/04/25 05:31:31;;;;;;;7.77;4.93;;;7.40;1.00;;;;;;5054471;28;20382;-44
2023/04/25 05:33:57;;;;;;;8.00;4.43;;;7.40;1.00;;;;;;5055104;28;20566;-45
2023/04/25 05:36:23;;;;;;;6.03;4.70;;;7.40;1.00;;;;;;5056538;28;20594;-45
2023/04/25 05:38:50;;;;;;;6.70;4.93;;;7.40;1.00;;;;;;5055629;28;20208;-44
2023/04/25 05:41:15;;;;;;;5.80;5.20;;;7.40;1.00;;;;;;5054460;28;20628;-43
2023/04/25 05:43:46;;;;;;;6.77;5.00;;;7.40;1.00;;;;;;5053072;28;20416;-44
2023/04/25 05:46:12;;;;;;;5.73;5.23;;;7.40;1.00;;;;;;5054542;28;20188;-46
2023/04/25 05:48:38;;;;;;;5.47;4.97;;;7.50;1.00;;;;;;5054820;28;20428;-45
2023/04/25 05:51:04;;;;;;;6.13;5.43;;;7.50;1.00;;;;;;5053909;28;20173;-44
2023/04/25 05:53:30;;;;;;;11.90;5.40;;;7.50;1.00;;;;;;5055496;28;20433;-44
2023/04/25 05:55:55;;;;;;;5.17;4.67;;;7.50;1.00;;;;;;5054680;28;20475;-43
2023/04/25 05:58:21;;;;;;;5.07;4.67;;;7.50;1.00;;;;;;5054529;28;20212;-44
2023/04/25 06:00:47;;;;;;;9.03;5.33;;;7.50;1.00;;;;;;5053247;28;20173;-44
2023/04/25 06:03:14;;;;;;;5.93;5.37;;;7.60;1.00;;;;;;5053971;28;20416;-45
2023/04/25 06:05:42;;;;;;;5.97;5.37;;;7.80;1.00;;;;;;5054319;28;20178;-44
2023/04/25 06:08:12;;;;;;;7.33;5.30;;;8.00;1.00;;;;;;5054280;28;20515;-46
2023/04/25 06:10:37;;;;;;;6.53;5.27;;;8.20;1.00;;;;;;5052903;28;20762;-45
2023/04/25 06:13:04;;;;;;;5.97;4.70;;;8.30;99.90;;;;;;5052485;28;20443;-46
2023/04/25 06:15:32;;;;;;;6.40;5.10;;;8.50;99.90;;;;;;5050639;28;20209;-46
2023/04/25 06:17:58;;;;;;;6.50;5.27;;;8.60;87.10;;;;;;5053754;28;20490;-44
2023/04/25 06:20:24;;;;;;;10.77;5.13;;;8.70;1.00;;;;;;5054765;28;20754;-43
2023/04/25 06:22:53;;;;;;;5.40;4.30;;;8.80;1.00;;;;;;5051594;28;20726;-43
2023/04/25 06:25:19;;;;;;;5.83;5.23;;;8.90;1.00;;;;;;5052386;28;20490;-47
2023/04/25 06:27:45;;;;;;;6.57;5.73;;;8.90;99.90;;;;;;5052963;28;20460;-44
2023/04/25 06:30:11;;;;;;;6.07;5.23;;;8.80;1.00;;;;;;5055635;28;20755;-44
2023/04/25 06:32:40;;;;;;;6.30;5.03;;;8.80;1.00;;;;;;5054765;28;20198;-43
2023/04/25 06:35:06;;;;;;;6.30;5.70;;;8.60;1.00;;;;;;5055238;28;20439;-44
2023/04/25 06:37:32;;;;;;;5.30;4.80;;;8.50;1.00;;;;;;5056123;28;20432;-43
2023/04/25 06:39:57;;;;;;;7.03;5.53;;;8.40;1.00;;;;;;5054921;28;20431;-48
2023/04/25 06:42:23;;;;;;;4.90;4.40;;;8.30;1.00;;;;;;5054163;28;20209;-47
2023/04/25 06:44:48;;;;;;;7.27;5.60;;;8.20;1.00;;;;;;5055667;28;21344;-46
2023/04/25 06:47:14;;;;;;;5.63;5.10;;;8.20;1.00;;;;;;5051585;28;20185;-45
2023/04/25 06:49:40;;;;;;;5.33;4.83;;;8.10;1.00;;;;;;5052973;28;20212;-45
2023/04/25 06:52:05;;;;;;;5.70;5.17;;;8.10;1.00;;;;;;5052213;28;20424;-44
2023/04/25 06:54:31;;;;;;;5.80;5.20;;;8.10;1.00;;;;;;5051219;28;20576;-45
2023/04/25 06:56:57;;;;;;;5.17;4.67;;;8.10;1.00;;;;;;5052789;28;20270;-44
2023/04/25 06:59:23;;;;;;;6.00;5.40;;;8.10;1.00;;;;;;5053378;28;20460;-44
2023/04/25 07:01:48;;;;;;;7.50;5.63;;;8.10;1.00;;;;;;5052111;28;20272;-44
2023/04/25 07:04:14;;;;;;;6.73;5.63;;;8.20;1.00;;;;;;5052849;28;20481;-47
2023/04/25 07:06:42;;;;;;;6.77;5.07;;;8.20;1.00;;;;;;5053546;28;20641;-44
2023/04/25 07:09:11;;;;;;;5.13;4.73;;;8.20;1.00;;;;;;5051805;28;20204;-44
2023/04/25 07:11:37;;;;;;;6.17;5.57;;;8.10;99.90;;;;;;5053777;28;20519;-43
2023/04/25 07:14:03;;;;;;;6.90;6.20;;;8.20;99.90;;;;;;5054129;28;20878;-43
2023/04/25 07:16:28;;;;;;;6.80;6.10;;;8.10;99.90;;;;;;5055349;28;20227;-46
2023/04/25 07:18:54;;;;;;;5.43;4.27;;;8.10;99.90;;;;;;5054460;28;20499;-50
2023/04/25 07:21:20;;;;;;;6.53;5.10;;;8.20;1.00;;;;;;5053686;28;20205;-47
2023/04/25 07:23:46;;;;;;;5.80;5.20;;;8.50;1.00;;;;;;5048321;28;20197;-43
2023/04/25 07:26:12;;;;;;;5.47;4.90;;;8.80;99.90;;;;;;5054412;28;20268;-46
2023/04/25 07:28:37;;;;;;;6.13;5.63;;;8.90;96.20;;;;;;5054213;28;20468;-45
2023/04/25 07:31:03;;;;;;;8.53;5.67;;;8.80;99.90;;;;;;5053679;28;20221;-44
2023/04/25 07:33:29;;;;;;;5.87;5.37;;;8.80;99.90;;;;;;5054595;28;20177;-45
2023/04/25 07:35:55;;;;;;;5.93;5.13;;;8.70;99.90;;;;;;5054036;28;20205;-46
2023/04/25 07:38:21;;;;;;;6.87;6.20;;;8.60;1.00;;;;;;5052791;28;20815;-46
2023/04/25 07:40:50;;;;;;;5.93;5.43;;;8.50;1.00;;;;;;5053064;28;20485;-45
2023/04/25 07:43:16;;;;;;;6.87;5.00;;;8.40;99.90;;;;;;5054465;28;20171;-44
2023/04/25 07:45:42;;;;;;;5.57;5.07;;;8.10;1.00;;;;;;5054489;28;20428;-44
2023/04/25 07:48:08;;;;;;;5.10;4.60;;;8.10;1.00;;;;;;5055676;28;20455;-47
2023/04/25 07:50:34;;;;;;;4.97;4.47;;;8.00;1.00;;;;;;5054965;28;20516;-44
2023/04/25 07:52:59;;;;;;;5.30;4.80;;;7.80;1.00;;;;;;5053198;28;20261;-45
2023/04/25 07:55:25;;;;;;;5.50;4.60;;;7.70;99.90;;;;;;5054386;28;20232;-46
2023/04/25 07:57:51;;;;;;;5.20;4.80;;;7.80;99.90;;;;;;5053184;28;20189;-45
2023/04/25 08:00:17;;;;;;;6.00;5.17;;;7.80;1.00;;;;;;5055061;28;20452;-44
2023/04/25 08:02:42;;;;;;;5.97;5.37;;;7.80;1.00;;;;;;5053558;28;20170;-46
2023/04/25 08:05:11;;;;;;;6.43;5.20;;;7.80;1.00;;;;;;5054699;28;20443;-44
2023/04/25 08:07:37;;;;;;;5.80;5.30;;;7.90;1.00;;;;;;5055882;28;20180;-44
2023/04/25 08:10:03;;;;;;;5.30;4.80;;;7.80;1.00;;;;;;5055561;28;20424;-44
2023/04/25 08:12:29;;;;;;;4.57;4.27;;;7.80;1.00;;;;;;5052412;28;20869;-43
2023/04/25 08:14:54;;;;;;;5.70;4.83;;;7.80;1.00;;;;;;5050574;28;20424;-44
2023/04/25 08:17:20;;;;;;;4.93;4.33;;;7.80;1.00;;;;;;5053453;28;20213;-43
2023/04/25 08:19:45;;;;;;;4.80;4.30;;;7.80;1.00;;;;;;5053273;28;20177;-45
2023/04/25 08:22:12;;;;;;;5.20;4.70;;;7.80;1.00;;;;;;5054886;28;20459;-43
2023/04/25 08:24:38;;;;;;;7.20;5.23;;;7.70;99.90;;;;;;5053968;28;20546;-44
2023/04/25 08:27:03;;;;;;;6.13;5.37;;;7.60;69.40;;;;;;5052663;28;20412;-44
2023/04/25 08:29:29;;;;;;;6.20;5.60;;;7.60;99.90;;;;;;5053260;28;20180;-43
2023/04/25 08:31:54;;;;;;;7.00;5.13;;;7.50;99.90;;;;;;5055169;28;20189;-44
2023/04/25 08:34:20;;;;;;;5.50;5.00;;;7.50;99.90;;;;;;5052724;28;20678;-43
2023/04/25 08:36:46;;;;;;;5.97;5.37;;;7.40;1.00;;;;;;5054755;28;20236;-44
2023/04/25 08:39:12;;;;;;;6.73;6.13;;;7.40;1.00;;;;;;5054947;28;20193;-43
2023/04/25 08:41:38;;;;;;;6.63;6.03;;;7.30;1.00;;;;;;5054420;28;20240;-44
2023/04/25 08:44:05;;;;;;;6.60;6.00;;;7.30;1.00;;;;;;5051880;28;20451;-45
2023/04/25 08:46:31;;;;;;;6.87;6.17;;;7.40;1.00;;;;;;5051636;28;20197;-45
2023/04/25 08:49:01;;;;;;;7.10;6.40;;;7.30;1.00;;;;;;5055529;28;20416;-45
2023/04/25 08:51:27;;;;;;;6.33;5.73;;;7.30;99.90;;;;;;5053879;28;20439;-44
2023/04/25 08:53:53;;;;;;;7.07;6.37;;;7.40;94.80;;;;;;5053858;28;20416;-44
2023/04/25 08:56:22;;;;;;;7.73;6.47;;;7.40;32.60;;;;;;5055170;28;20474;-43
2023/04/25 08:58:51;;;;;;;9.50;5.90;;;7.40;98.30;;;;;;5053941;28;20478;-45
2023/04/25 09:01:18;;;;;;;6.50;5.90;;;7.30;49.60;;;;;;5052797;28;20423;-44
2023/04/25 09:03:44;;;;;;;6.60;6.00;;;7.20;9.40;;;;;;5056361;28;20441;-43
2023/04/25 09:06:11;;;;;;;6.67;6.00;;;7.10;1.00;;;;;;5058072;28;20849;-45
2023/04/25 09:08:37;;;;;;;6.40;5.80;;;7.10;1.00;;;;;;5056060;28;20419;-43
2023/04/25 09:11:03;;;;;;;6.63;5.90;;;7.10;1.00;;;;;;5057940;28;20640;-45
2023/04/25 09:13:29;;;;;;;6.40;5.80;;;7.10;1.00;;;;;;5055873;28;20495;-45
2023/04/25 09:15:57;;;;;;;6.40;5.80;;;7.00;1.00;;;;;;5053327;28;20197;-45
2023/04/25 09:18:27;;;;;;;5.80;5.20;;;7.00;1.00;;;;;;5054543;28;20417;-44
2023/04/25 09:20:54;;;;;;;6.43;5.83;;;6.90;35.70;;;;;;5053740;28;20420;-43
2023/04/25 09:23:21;;;;;;;7.73;6.93;;;6.90;99.90;;;;;;5054510;28;20557;-44
2023/04/25 09:25:51;;;;;;;6.47;5.87;;;6.90;99.90;;;;;;5054269;28;20451;-45
2023/04/25 09:28:23;;;;;;;5.23;4.73;;;7.00;99.90;;;;;;5052767;28;20768;-43
2023/04/25 09:30:49;;;;;;;5.37;4.87;;;6.80;93.80;;;;;;5054684;28;20534;-45
2023/04/25 09:33:15;;;;;;;6.10;5.20;;;6.90;99.90;;;;;;5053987;28;20563;-45
2023/04/25 09:35:44;;;;;;;5.00;4.50;;;6.90;99.90;;;;;;5053604;28;20215;-44
2023/04/25 09:38:12;;;;;;;4.73;4.20;;;6.80;99.90;;;;;;5056875;28;20185;-44
2023/04/25 09:40:40;;;;;;;4.90;4.40;;;6.60;99.20;;;;;;5055491;28;20725;-45
2023/04/25 09:43:25;;;;;;;4.57;4.00;;;6.60;99.90;;;;;;5054590;28;20743;-45
2023/04/25 09:45:53;;;;;;;3.03;2.73;;;7.00;99.90;;;;;;5055329;28;20765;-43
2023/04/25 09:48:20;;;;;;;3.60;3.27;;;7.30;99.90;;;;;;5055655;28;20657;-45
2023/04/25 09:51:13;;;;;;;2.47;2.17;;;7.40;95.40;;;;;;5054862;28;20448;-44
2023/04/25 09:53:40;;;;;;;1.70;1.50;;;7.10;1.00;;;;;;5046524;28;20586;-44
2023/04/25 09:56:07;;;;;;;2.77;1.97;;;6.80;1.00;;;;;;5052803;28;20556;-43
2023/04/25 09:58:33;;;;;;;1.70;1.57;;;6.60;1.00;;;;;;5052972;28;20728;-43
2023/04/25 10:01:02;;;;;;;2.17;1.50;;;6.50;23.70;;;;;;5055148;28;20426;-44
2023/04/25 10:03:30;;;;;;;3.00;1.73;;;6.40;38.70;;;;;;5054102;28;20739;-45
2023/04/25 10:05:59;;;;;;;2.67;1.90;;;6.40;99.90;;;;;;5055775;28;20489;-44
2023/04/25 10:08:26;;;;;;;1.60;1.40;;;6.30;99.90;;;;;;5055023;28;20412;-44
2023/04/25 10:10:52;;;;;;;2.33;1.60;;;6.20;99.90;;;;;;5054261;28;20427;-43
2023/04/25 10:13:18;;;;;;;1.70;1.33;;;6.20;99.90;;;;;;5056442;28;20644;-43
2023/04/25 10:15:44;;;;;;;1.50;1.03;;;6.20;99.90;;;;;;5053962;28;20201;-44
2023/04/25 10:18:10;;;;;;;1.10;0.77;;;6.20;99.90;;;;;;5056478;28;20438;-45
2023/04/25 10:20:36;;;;;;;2.23;1.00;;;6.20;99.90;;;;;;5054824;28;20412;-43
2023/04/25 10:23:14;;;;;;;1.43;1.10;;;6.20;99.90;;;;;;5057839;28;20170;-43
2023/04/25 10:25:40;;;;;;;1.93;0.90;;;6.40;99.90;;;;;;5056251;28;20420;-47
2023/04/25 10:28:06;;;;;;;1.10;0.83;;;6.50;99.90;;;;;;5053743;28;20472;-43
2023/04/25 10:30:32;;;;;;;1.00;0.60;;;6.70;59.10;;;;;;5053730;28;20424;-44
2023/04/25 10:32:59;;;;;;;1.30;0.70;;;6.60;1.00;;;;;;5054001;28;20493;-43
2023/04/25 10:35:30;;;;;;;1.23;0.80;;;6.60;5.30;;;;;;5053403;28;20210;-44
2023/04/25 10:38:09;;;;;;;1.70;0.83;;;6.70;23.60;;;;;;5052521;28;20483;-43
2023/04/25 10:40:35;;;;;;;1.97;0.90;;;6.80;65.20;;;;;;5050962;28;20732;-42
2023/04/25 10:43:31;;;;;;;1.50;0.90;;;6.90;3.70;;;;;;5052479;28;20421;-45
2023/04/25 10:46:00;;;;;;;1.80;1.20;;;6.90;98.90;;;;;;5051298;28;20282;-43
2023/04/25 10:48:30;;;;;;;1.27;0.90;;;6.90;1.00;;;;;;5053140;28;20455;-44
2023/04/25 10:51:09;;;;;;;1.57;1.03;;;6.70;18.50;;;;;;5054175;28;20432;-46
2023/04/25 10:53:34;;;;;;;1.40;0.90;;;6.60;44.40;;;;;;5055348;28;20420;-45
2023/04/25 10:56:00;;;;;;;1.87;0.90;;;6.60;99.90;;;;;;5052189;28;20480;-44
2023/04/25 10:58:26;;;;;;;1.40;0.90;;;6.70;99.90;;;;;;5051321;28;20209;-45
2023/04/25 11:00:52;;;;;;;3.43;3.13;;;6.70;99.90;;;;;;5052354;28;20498;-45
2023/04/25 11:03:17;;;;;;;9.27;8.57;;;6.90;99.90;;;;;;5053372;28;20412;-44
2023/04/25 11:05:44;;;;;;;1.00;0.83;;;7.00;99.90;;;;;;5052870;28;20202;-43
2023/04/25 11:08:11;;;;;;;1.63;1.50;;;7.10;94.10;;;;;;5051645;28;20174;-45
2023/04/25 11:10:37;;;;;;;1.40;1.00;;;7.00;99.90;;;;;;5050273;28;20727;-43
2023/04/25 11:13:02;;;;;;;1.43;0.83;;;7.10;24.80;;;;;;5050671;28;20432;-44
2023/04/25 11:15:28;;;;;;;2.30;1.00;;;7.00;99.90;;;;;;5050849;28;20255;-46
2023/04/25 11:17:54;;;;;;;1.30;1.07;;;7.10;99.90;;;;;;5053431;28;20492;-44
2023/04/25 11:20:21;;;;;;;1.63;1.03;;;7.30;99.90;;;;;;5051090;28;20256;-44
2023/04/25 11:22:47;;;;;;;1.30;0.80;;;7.20;99.90;;;;;;5033491;28;20700;-43
2023/04/25 11:25:15;;;;;;;2.70;1.17;;;7.30;99.90;;;;;;5051471;28;20595;-44
2023/04/25 11:27:54;;;;;;;1.53;0.90;;;7.20;99.90;;;;;;5049915;28;20629;-43
2023/04/25 11:30:21;;;;;;;6.00;5.60;;;7.20;1.00;;;;;;5051561;28;20771;-43
2023/04/25 11:32:47;;;;;;;3.13;2.80;;;7.20;26.00;;;;;;5051024;28;20503;-46
2023/04/25 11:35:13;;;;;;;3.23;2.20;;;7.30;94.20;;;;;;5048770;28;20728;-44
2023/04/25 11:37:40;;;;;;;9.43;5.80;;;7.40;99.90;;;;;;5053285;28;20462;-44
2023/04/25 11:40:06;;;;;;;19.03;11.23;;;7.60;99.90;;;;;;5053672;28;20436;-43
2023/04/25 11:42:33;;;;;;;18.10;10.80;;;7.80;99.90;;;;;;5051391;28;20435;-45
2023/04/25 11:44:59;;;;;;;8.73;6.30;;;8.10;79.10;;;;;;5050990;28;20722;-44
2023/04/25 11:47:32;;;;;;;10.00;7.53;;;8.30;1.00;;;;;;5050580;28;20432;-43
2023/04/25 11:49:59;;;;;;;5.87;4.20;;;8.40;1.00;;;;;;5050562;28;20424;-44
2023/04/25 11:52:38;;;;;;;9.37;6.50;;;8.40;99.90;;;;;;5051103;28;20459;-44
2023/04/25 11:55:06;;;;;;;5.40;4.47;;;8.50;99.90;;;;;;5032303;28;20799;-43
2023/04/25 11:57:32;;;;;;;8.07;5.77;;;8.70;99.90;;;;;;5050891;28;20470;-46
2023/04/25 12:00:08;;;;;;;4.40;3.83;;;8.80;46.00;;;;;;5051162;28;20695;-45
2023/04/25 12:02:40;;;;;;;7.30;5.40;;;9.00;1.00;;;;;;5051977;28;20264;-44
2023/04/25 12:05:08;;;;;;;3.13;2.83;;;9.30;1.00;;;;;;5050750;28;20493;-44
2023/04/25 12:07:34;;;;;;;4.30;3.30;;;9.60;15.10;;;;;;5054483;28;20420;-44
2023/04/25 12:10:03;;;;;;;5.03;3.83;;;9.70;1.00;;;;;;5053007;28;21039;-43
2023/04/25 12:12:33;;;;;;;4.80;4.20;;;9.90;99.90;;;;;;5052850;28;20694;-45
2023/04/25 12:15:12;;;;;;;11.13;6.33;;;10.10;1.00;;;;;;5054842;28;20428;-44
2023/04/25 12:17:38;;;;;;;5.60;4.03;;;10.20;1.00;;;;;;5054744;28;20463;-44
2023/04/25 12:20:09;;;;;;;3.20;2.90;;;10.20;1.20;;;;;;5052679;28;20938;-45
2023/04/25 12:22:36;;;;;;;5.10;4.57;;;10.10;1.00;;;;;;5051371;28;20762;-44
2023/04/25 12:25:03;;;;;;;31.67;17.70;;;10.20;99.90;;;;;;5034008;28;20513;-43
2023/04/25 12:27:31;;;;;;;7.27;6.17;;;10.20;99.90;;;;;;5049503;28;20459;-43
2023/04/25 12:29:58;;;;;;;6.50;5.23;;;10.10;1.00;;;;;;5049128;28;21007;-45
2023/04/25 12:32:24;;;;;;;12.57;10.33;;;10.10;99.90;;;;;;5052035;28;20478;-44
2023/04/25 12:34:50;;;;;;;13.03;9.60;;;10.00;1.00;;;;;;5051929;28;20679;-43
2023/04/25 12:37:16;;;;;;;8.50;7.67;;;10.00;49.30;;;;;;5050323;28;20654;-45
2023/04/25 12:39:41;;;;;;;8.27;7.30;;;9.90;98.30;;;;;;5055258;28;20449;-43
2023/04/25 12:42:13;;;;;;;6.20;5.60;;;9.80;99.90;;;;;;5053648;28;20174;-43
2023/04/25 12:44:39;;;;;;;5.87;5.37;;;9.80;99.90;;;;;;5055396;28;20165;-43
2023/04/25 12:47:05;;;;;;;16.30;9.57;;;9.80;99.90;;;;;;5055210;28;20493;-43
2023/04/25 12:49:31;;;;;;;6.77;6.07;;;9.80;1.00;;;;;;5053789;28;20231;-44
2023/04/25 12:51:57;;;;;;;5.90;5.40;;;9.70;99.90;;;;;;5054269;28;20729;-45
2023/04/25 12:54:23;;;;;;;11.60;8.33;;;9.80;9.20;;;;;;5053594;28;20960;-44
2023/04/25 12:56:50;;;;;;;6.37;5.77;;;9.90;1.00;;;;;;5053823;28;20477;-44
2023/04/25 12:59:15;;;;;;;5.70;5.23;;;10.00;99.90;;;;;;5054430;28;20170;-45
2023/04/25 13:01:41;;;;;;;6.37;5.77;;;9.90;99.90;;;;;;5054554;28;20469;-44